createdAt,value
2017-12-06T00:00:11.894Z,30.45
2017-12-06T00:02:39.397Z,33.55
2017-12-06T00:05:06.958Z,37.42
2017-12-06T00:07:34.451Z,34.13
2017-12-06T00:10:02.714Z,29.92
2017-12-06T00:12:36.582Z,29.77
2017-12-06T00:15:10.255Z,36.28
2017-12-06T00:17:37.786Z,30.25
2017-12-06T00:20:06.048Z,27.85
2017-12-06T00:22:33.530Z,31.15
2017-12-06T00:25:01.066Z,30.23
2017-12-06T00:27:28.551Z,31.05
2017-12-06T00:29:56.038Z,28.58
2017-12-06T00:32:24.619Z,28.80
2017-12-06T00:34:52.999Z,28.67
2017-12-06T00:37:20.482Z,28.58
2017-12-06T00:39:47.981Z,34.38
2017-12-06T00:42:15.470Z,26.50
2017-12-06T00:44:42.958Z,28.60
2017-12-06T00:47:10.473Z,28.25
2017-12-06T00:49:37.974Z,29.02
2017-12-06T00:52:05.578Z,27.23
2017-12-06T00:54:33.091Z,37.13
2017-12-06T00:57:00.609Z,32.20
2017-12-06T00:59:28.577Z,34.60
2017-12-06T01:01:56.942Z,29.08
2017-12-06T01:04:25.034Z,28.73
2017-12-06T01:06:53.184Z,27.73
2017-12-06T01:09:20.690Z,37.90
2017-12-06T01:11:48.385Z,29.08
2017-12-06T01:14:16.457Z,27.10
2017-12-06T01:16:44.568Z,26.08
2017-12-06T01:19:12.124Z,29.23
2017-12-06T01:21:40.819Z,27.62
2017-12-06T01:24:08.546Z,30.23
2017-12-06T01:26:36.804Z,27.95
2017-12-06T01:29:04.295Z,27.87
2017-12-06T01:31:32.563Z,25.48
2017-12-06T01:34:00.867Z,25.70
2017-12-06T01:36:29.563Z,24.00
2017-12-06T01:38:57.534Z,27.20
2017-12-06T01:41:25.086Z,28.75
2017-12-06T01:43:52.808Z,25.37
2017-12-06T01:46:20.337Z,24.45
2017-12-06T01:48:48.931Z,23.02
2017-12-06T01:51:16.422Z,29.27
2017-12-06T01:53:44.981Z,28.55
2017-12-06T01:56:13.006Z,23.48
2017-12-06T01:58:40.886Z,22.85
2017-12-06T02:01:09.150Z,26.15
2017-12-06T02:03:37.206Z,22.62
2017-12-06T02:06:05.511Z,24.40
2017-12-06T02:08:33.336Z,20.05
2017-12-06T02:11:01.599Z,23.30
2017-12-06T02:13:29.862Z,27.33
2017-12-06T02:15:57.587Z,23.40
2017-12-06T02:18:25.655Z,21.45
2017-12-06T02:20:53.196Z,24.45
2017-12-06T02:23:21.606Z,20.80
2017-12-06T02:25:49.556Z,21.17
2017-12-06T02:28:17.060Z,25.10
2017-12-06T02:30:44.575Z,26.42
2017-12-06T02:33:12.116Z,25.37
2017-12-06T02:35:39.674Z,26.60
2017-12-06T02:38:07.174Z,25.98
2017-12-06T02:40:46.504Z,23.48
2017-12-06T02:43:25.866Z,23.15
2017-12-06T02:45:53.351Z,19.35
2017-12-06T02:48:21.605Z,20.35
2017-12-06T02:50:49.898Z,23.10
2017-12-06T02:53:17.790Z,21.67
2017-12-06T02:55:46.961Z,20.27
2017-12-06T02:58:14.522Z,20.33
2017-12-06T03:00:42.035Z,18.62
2017-12-06T03:03:10.491Z,21.98
2017-12-06T03:05:38.082Z,23.55
2017-12-06T03:08:05.583Z,20.88
2017-12-06T03:10:33.082Z,21.85
2017-12-06T03:13:01.227Z,22.67
2017-12-06T03:15:29.738Z,23.25
2017-12-06T03:17:57.227Z,22.77
2017-12-06T03:20:24.739Z,20.15
2017-12-06T03:22:52.230Z,21.75
2017-12-06T03:25:19.746Z,20.58
2017-12-06T03:27:48.325Z,21.20
2017-12-06T03:30:15.885Z,21.83
2017-12-06T03:32:43.393Z,26.12
2017-12-06T03:35:10.892Z,23.45
2017-12-06T03:37:38.387Z,21.90
2017-12-06T03:40:05.887Z,25.42
2017-12-06T03:42:33.946Z,22.52
2017-12-06T03:45:01.790Z,27.60
2017-12-06T03:47:29.312Z,26.02
2017-12-06T03:49:57.587Z,31.30
2017-12-06T03:52:25.078Z,31.27
2017-12-06T03:54:53.021Z,25.95
2017-12-06T03:57:20.613Z,27.42
2017-12-06T03:59:48.142Z,26.67
2017-12-06T04:02:16.553Z,30.48
2017-12-06T04:04:44.090Z,26.02
2017-12-06T04:07:11.590Z,26.73
2017-12-06T04:09:39.094Z,29.20
2017-12-06T04:12:07.364Z,32.33
2017-12-06T04:14:34.860Z,29.70
2017-12-06T04:17:03.159Z,33.40
2017-12-06T04:19:30.702Z,31.37
2017-12-06T04:21:59.388Z,31.62
2017-12-06T04:24:27.319Z,29.02
2017-12-06T04:26:55.099Z,31.50
2017-12-06T04:29:22.862Z,30.05
2017-12-06T04:31:51.121Z,30.98
2017-12-06T04:34:18.638Z,31.55
2017-12-06T04:36:46.198Z,30.85
2017-12-06T04:39:13.682Z,35.75
2017-12-06T04:41:41.326Z,31.52
2017-12-06T04:44:09.737Z,39.65
2017-12-06T04:46:37.297Z,35.58
2017-12-06T04:49:04.802Z,30.20
2017-12-06T04:51:32.775Z,32.00
2017-12-06T04:54:00.263Z,32.55
2017-12-06T04:56:27.787Z,34.67
2017-12-06T04:58:55.314Z,36.15
2017-12-06T05:01:23.580Z,35.83
2017-12-06T05:03:52.450Z,37.42
2017-12-06T05:06:20.033Z,32.58
2017-12-06T05:08:47.522Z,40.97
2017-12-06T05:11:16.155Z,32.75
2017-12-06T05:13:43.944Z,30.75
2017-12-06T05:16:12.221Z,36.28
2017-12-06T05:18:40.498Z,35.55
2017-12-06T05:21:08.028Z,37.55
2017-12-06T05:23:36.591Z,33.08
2017-12-06T05:26:04.099Z,36.63
2017-12-06T05:28:31.597Z,33.05
2017-12-06T05:30:59.156Z,35.53
2017-12-06T05:33:26.905Z,38.05
2017-12-06T05:35:54.450Z,35.28
2017-12-06T05:38:22.727Z,33.80
2017-12-06T05:40:51.795Z,33.47
2017-12-06T05:43:19.354Z,36.78
2017-12-06T05:45:46.881Z,39.85
2017-12-06T05:48:14.394Z,34.70
2017-12-06T05:50:41.909Z,36.05
2017-12-06T05:53:09.840Z,39.60
2017-12-06T05:55:39.099Z,38.95
2017-12-06T05:58:07.186Z,40.78
2017-12-06T06:00:34.763Z,42.35
2017-12-06T06:03:03.038Z,43.95
2017-12-06T06:05:31.315Z,40.30
2017-12-06T06:07:59.790Z,41.85
2017-12-06T06:10:28.139Z,45.42
2017-12-06T06:12:55.694Z,44.53
2017-12-06T06:15:23.249Z,44.35
2017-12-06T06:17:50.793Z,42.10
2017-12-06T06:20:19.262Z,37.90
2017-12-06T06:22:46.762Z,41.28
2017-12-06T06:25:14.825Z,43.83
2017-12-06T06:27:43.180Z,45.78
2017-12-06T06:30:10.723Z,50.47
2017-12-06T06:32:38.214Z,39.03
2017-12-06T06:35:08.649Z,46.17
2017-12-06T06:37:37.581Z,43.53
2017-12-06T06:40:06.989Z,46.17
2017-12-06T06:42:35.732Z,46.37
2017-12-06T06:45:05.448Z,42.62
2017-12-06T06:47:34.271Z,51.00
2017-12-06T06:50:02.922Z,46.65
2017-12-06T06:52:30.505Z,36.70
2017-12-06T06:54:58.600Z,44.10
2017-12-06T06:57:27.339Z,48.90
2017-12-06T06:59:55.673Z,46.78
2017-12-06T07:02:25.212Z,49.53
2017-12-06T07:04:53.870Z,44.25
2017-12-06T07:07:21.590Z,43.63
2017-12-06T07:09:49.280Z,45.33
2017-12-06T07:12:17.636Z,49.50
2017-12-06T07:14:45.178Z,44.63
2017-12-06T07:17:12.731Z,39.72
2017-12-06T07:19:46.577Z,46.95
2017-12-06T07:22:14.995Z,45.28
2017-12-06T07:24:42.666Z,49.40
2017-12-06T07:27:10.534Z,47.45
2017-12-06T07:29:38.487Z,43.67
2017-12-06T07:32:05.987Z,44.55
2017-12-06T07:34:33.484Z,48.22
2017-12-06T07:37:00.998Z,44.22
2017-12-06T07:39:28.510Z,43.15
2017-12-06T07:41:56.002Z,47.15
2017-12-06T07:44:26.423Z,43.53
2017-12-06T07:46:53.942Z,42.13
2017-12-06T07:49:22.212Z,39.83
2017-12-06T07:51:50.494Z,44.47
2017-12-06T07:54:18.764Z,45.83
2017-12-06T07:56:46.253Z,38.97
2017-12-06T07:59:13.782Z,44.17
2017-12-06T08:01:42.211Z,40.08
2017-12-06T08:04:09.772Z,37.67
2017-12-06T08:06:38.098Z,39.53
2017-12-06T08:09:06.380Z,41.58
2017-12-06T08:11:34.655Z,45.12
2017-12-06T08:14:02.930Z,39.30
2017-12-06T08:16:31.611Z,41.13
2017-12-06T08:18:59.178Z,45.17
2017-12-06T08:21:27.461Z,42.03
2017-12-06T08:23:56.595Z,44.35
2017-12-06T08:26:24.115Z,39.88
2017-12-06T08:28:52.366Z,38.13
2017-12-06T08:31:19.853Z,33.25
2017-12-06T08:33:47.403Z,34.83
2017-12-06T08:36:15.428Z,40.12
2017-12-06T08:38:43.280Z,37.83
2017-12-06T08:41:10.862Z,32.75
2017-12-06T08:43:38.708Z,35.55
2017-12-06T08:46:06.242Z,40.97
2017-12-06T08:48:34.611Z,34.42
2017-12-06T08:51:04.295Z,37.63
2017-12-06T08:53:32.527Z,33.60
2017-12-06T08:56:00.903Z,34.42
2017-12-06T08:58:28.405Z,39.60
2017-12-06T09:00:56.270Z,30.08
2017-12-06T09:03:23.795Z,35.78
2017-12-06T09:05:51.286Z,31.15
2017-12-06T09:08:19.658Z,36.97
2017-12-06T09:10:48.820Z,35.90
2017-12-06T09:15:53.313Z,30.83
2017-12-06T09:18:22.071Z,38.47
2017-12-06T09:20:50.215Z,33.15
2017-12-06T09:23:19.435Z,32.63
2017-12-06T09:25:47.200Z,46.30
2017-12-06T09:28:14.787Z,29.40
2017-12-06T09:30:42.310Z,32.63
2017-12-06T09:33:10.301Z,32.28
2017-12-06T09:35:37.807Z,38.03
2017-12-06T09:38:06.019Z,33.80
2017-12-06T09:40:34.375Z,37.95
2017-12-06T09:43:02.154Z,36.47
2017-12-06T09:45:31.769Z,34.97
2017-12-06T09:47:59.663Z,29.55
2017-12-06T09:50:28.004Z,42.17
2017-12-06T09:52:55.562Z,31.40
2017-12-06T09:55:24.432Z,32.90
2017-12-06T09:57:52.603Z,33.70
2017-12-06T10:00:21.017Z,32.25
2017-12-06T10:02:48.760Z,33.67
2017-12-06T10:05:16.730Z,33.35
2017-12-06T10:07:44.551Z,35.53
2017-12-06T10:10:12.057Z,30.23
2017-12-06T10:12:40.685Z,29.12
2017-12-06T10:15:08.281Z,35.17
2017-12-06T10:17:36.563Z,36.33
2017-12-06T10:20:04.081Z,31.20
2017-12-06T10:22:31.622Z,39.67
2017-12-06T10:24:59.105Z,38.85
2017-12-06T10:27:26.624Z,33.38
2017-12-06T10:29:55.167Z,34.75
2017-12-06T10:32:23.232Z,35.15
2017-12-06T10:34:51.235Z,34.15
2017-12-06T10:37:19.782Z,40.28
2017-12-06T10:39:47.293Z,31.87
2017-12-06T10:42:14.790Z,31.73
2017-12-06T10:44:42.324Z,55.30
2017-12-06T10:47:09.823Z,31.05
2017-12-06T10:49:37.548Z,34.15
2017-12-06T10:52:05.086Z,32.25
2017-12-06T10:54:33.198Z,36.53
2017-12-06T10:57:02.106Z,32.92
2017-12-06T10:59:29.622Z,34.30
2017-12-06T11:01:59.122Z,31.98
2017-12-06T11:04:26.662Z,28.98
2017-12-06T11:06:55.404Z,29.42
2017-12-06T11:09:24.347Z,33.90
2017-12-06T11:11:51.854Z,35.40
2017-12-06T11:14:23.388Z,30.73
2017-12-06T11:16:51.067Z,31.17
2017-12-06T11:19:18.920Z,32.90
2017-12-06T11:21:47.762Z,28.73
2017-12-06T11:24:16.925Z,34.10
2017-12-06T11:26:44.435Z,35.00
2017-12-06T11:29:12.127Z,34.08
2017-12-06T11:31:40.263Z,35.50
2017-12-06T11:34:07.779Z,35.63
2017-12-06T11:36:35.858Z,34.90
2017-12-06T11:39:04.643Z,35.38
2017-12-06T11:41:32.147Z,35.83
2017-12-06T11:44:00.826Z,32.13
2017-12-06T11:46:28.339Z,36.70
2017-12-06T11:48:56.431Z,31.05
2017-12-06T11:51:23.970Z,30.15
2017-12-06T11:53:51.499Z,29.67
2017-12-06T11:56:19.885Z,30.35
2017-12-06T11:58:47.426Z,33.72
2017-12-06T12:01:14.935Z,29.45
2017-12-06T12:03:43.391Z,39.30
2017-12-06T12:06:11.319Z,33.80
2017-12-06T12:08:39.429Z,35.95
2017-12-06T12:11:06.936Z,33.13
2017-12-06T12:13:39.899Z,32.65
2017-12-06T12:16:07.978Z,34.03
2017-12-06T12:18:36.030Z,41.00
2017-12-06T12:21:03.541Z,32.50
2017-12-06T12:23:33.230Z,32.83
2017-12-06T12:26:04.917Z,28.98
2017-12-06T12:28:32.726Z,33.15
2017-12-06T12:31:04.619Z,38.35
2017-12-06T12:33:35.365Z,32.08
2017-12-06T12:36:06.042Z,34.55
2017-12-06T12:38:34.190Z,31.70
2017-12-06T12:41:02.635Z,29.85
2017-12-06T12:43:30.170Z,31.35
2017-12-06T12:46:00.623Z,31.27
2017-12-06T12:48:28.418Z,30.98
2017-12-06T12:50:57.245Z,31.60
2017-12-06T12:53:27.794Z,39.08
2017-12-06T12:55:58.810Z,34.17
2017-12-06T12:58:27.225Z,34.17
2017-12-06T13:00:55.053Z,30.17
2017-12-06T13:03:26.514Z,27.42
2017-12-06T13:05:54.800Z,29.35
2017-12-06T13:08:30.431Z,30.12
2017-12-06T13:13:35.824Z,31.67
2017-12-06T13:16:05.866Z,29.37
2017-12-06T13:18:33.722Z,28.10
2017-12-06T13:21:07.818Z,32.20
2017-12-06T13:23:37.766Z,27.55
2017-12-06T13:26:06.850Z,31.15
2017-12-06T13:28:35.009Z,29.05
2017-12-06T13:31:04.114Z,30.12
2017-12-06T13:33:36.677Z,29.55
2017-12-06T13:36:07.830Z,29.00
2017-12-06T13:41:15.916Z,27.48
2017-12-06T13:43:48.212Z,27.20
2017-12-06T13:46:19.657Z,29.90
2017-12-06T13:48:49.555Z,27.52
2017-12-06T13:51:17.042Z,30.42
2017-12-06T13:53:49.563Z,28.70
2017-12-06T13:56:20.748Z,30.50
2017-12-06T13:58:55.482Z,29.20
2017-12-06T14:01:30.212Z,25.45
2017-12-06T14:04:00.653Z,33.55
2017-12-06T14:06:28.919Z,27.35
2017-12-06T14:08:59.767Z,31.77
2017-12-06T14:11:29.411Z,28.08
2017-12-06T14:14:06.199Z,26.98
2017-12-06T14:16:36.054Z,27.33
2017-12-06T14:19:08.551Z,26.15
2017-12-06T14:21:42.051Z,28.35
2017-12-06T14:24:23.428Z,27.50
2017-12-06T14:27:09.198Z,26.50
2017-12-06T14:29:43.205Z,26.65
2017-12-06T14:32:18.623Z,26.77
2017-12-06T14:34:54.096Z,26.37
2017-12-06T14:37:24.938Z,28.52
2017-12-06T14:40:00.354Z,30.37
2017-12-06T14:42:38.197Z,27.40
2017-12-06T14:45:11.082Z,23.62
2017-12-06T14:47:44.770Z,23.87
2017-12-06T14:50:24.418Z,24.70
2017-12-06T14:52:56.975Z,28.12
2017-12-06T14:55:33.410Z,23.23
2017-12-06T14:58:04.393Z,25.17
2017-12-06T15:00:36.889Z,23.35
2017-12-06T15:03:10.469Z,23.17
2017-12-06T15:05:41.834Z,22.20
2017-12-06T15:08:15.469Z,23.05
2017-12-06T15:13:27.842Z,24.55
2017-12-06T15:16:04.684Z,26.60
2017-12-06T15:18:38.524Z,27.62
2017-12-06T15:21:12.322Z,21.02
2017-12-06T15:23:54.159Z,24.20
2017-12-06T15:26:27.721Z,25.75
2017-12-06T15:29:09.442Z,20.40
2017-12-06T15:34:43.934Z,30.17
2017-12-06T15:37:15.386Z,19.83
2017-12-06T15:45:26.476Z,18.73
2017-12-06T15:47:59.795Z,18.52
2017-12-06T15:53:11.519Z,22.58
2017-12-06T15:55:39.823Z,18.48
2017-12-06T15:58:18.929Z,21.42
2017-12-06T16:03:34.158Z,20.30
2017-12-06T16:06:05.606Z,20.98
2017-12-06T16:08:36.433Z,21.08
2017-12-06T16:11:06.301Z,22.50
2017-12-06T16:13:37.523Z,25.40
2017-12-06T16:16:07.135Z,21.75
2017-12-06T16:18:39.784Z,21.67
2017-12-06T16:21:18.577Z,21.65
2017-12-06T16:24:11.533Z,21.62
2017-12-06T16:27:06.321Z,20.35
2017-12-06T16:29:54.562Z,23.42
2017-12-06T16:32:34.344Z,23.35
2017-12-06T16:35:26.386Z,23.48
2017-12-06T16:38:01.951Z,19.37
2017-12-06T16:40:34.393Z,24.50
2017-12-06T16:48:27.351Z,27.83
2017-12-06T16:51:02.443Z,28.67
2017-12-06T16:53:36.702Z,22.60
2017-12-06T16:56:08.034Z,28.00
2017-12-06T16:58:46.907Z,25.37
2017-12-06T17:01:17.431Z,19.92
2017-12-06T17:03:54.864Z,23.45
2017-12-06T17:09:04.193Z,24.50
2017-12-06T17:22:16.946Z,22.73
2017-12-06T17:24:55.465Z,24.52
2017-12-06T17:27:25.066Z,24.23
2017-12-06T17:30:05.976Z,25.12
2017-12-06T17:32:38.600Z,30.02
2017-12-06T17:35:11.222Z,25.10
2017-12-06T17:37:44.112Z,27.00
2017-12-06T17:40:20.406Z,26.30
2017-12-06T17:42:53.527Z,26.83
2017-12-06T17:45:28.119Z,25.60
2017-12-06T17:48:07.135Z,24.60
2017-12-06T17:50:52.635Z,25.65
2017-12-06T17:53:25.391Z,24.92
2017-12-06T17:55:58.790Z,25.10
2017-12-06T17:58:39.030Z,22.40
2017-12-06T18:01:11.946Z,22.00
2017-12-06T18:03:51.967Z,22.35
2017-12-06T18:06:33.126Z,25.58
2017-12-06T18:09:14.640Z,21.48
2017-12-06T18:11:59.823Z,21.87
2017-12-06T18:14:35.086Z,19.05
2017-12-06T18:17:24.152Z,20.10
2017-12-06T18:20:15.047Z,19.62
2017-12-06T18:22:55.334Z,16.25
2017-12-06T18:30:54.226Z,22.48
2017-12-06T18:33:29.154Z,18.08
2017-12-06T18:36:01.527Z,14.30
2017-12-06T18:38:30.642Z,22.67
2017-12-06T18:43:56.779Z,15.50
2017-12-06T18:46:27.202Z,16.77
2017-12-06T18:49:00.716Z,16.92
2017-12-06T18:51:32.817Z,15.73
2017-12-06T18:54:03.602Z,14.43
2017-12-06T18:56:36.076Z,21.30
2017-12-06T19:01:39.785Z,21.60
2017-12-06T19:04:26.399Z,18.12
2017-12-06T19:07:01.666Z,17.83
2017-12-06T19:12:14.257Z,20.20
2017-12-06T19:14:45.514Z,21.77
2017-12-06T19:17:24.563Z,18.08
2017-12-06T19:20:22.983Z,17.42
2017-12-06T19:25:41.341Z,16.50
2017-12-06T19:28:17.038Z,19.10
2017-12-06T19:30:55.862Z,17.87
2017-12-06T19:33:48.516Z,15.23
2017-12-06T19:36:19.570Z,14.07
2017-12-06T19:38:49.682Z,13.18
2017-12-06T19:41:23.828Z,17.35
2017-12-06T19:44:00.219Z,17.85
2017-12-06T19:46:28.840Z,19.40
2017-12-06T19:49:01.596Z,15.90
2017-12-06T19:51:33.889Z,20.23
2017-12-06T19:54:05.274Z,19.45
2017-12-06T19:56:42.464Z,19.45
2017-12-06T19:59:12.839Z,17.73
2017-12-06T20:01:43.692Z,24.52
2017-12-06T20:04:14.175Z,22.45
2017-12-06T20:06:46.898Z,15.45
2017-12-06T20:09:16.963Z,14.57
2017-12-06T20:11:51.018Z,18.45
2017-12-06T20:14:21.771Z,17.98
2017-12-06T20:16:58.653Z,22.90
2017-12-06T20:19:29.743Z,17.95
2017-12-06T20:22:00.478Z,15.40
2017-12-06T20:27:12.248Z,17.12
2017-12-06T20:29:46.936Z,16.33
2017-12-06T20:32:15.320Z,12.77
2017-12-06T20:34:42.913Z,13.62
2017-12-06T20:39:45.422Z,16.35
2017-12-06T20:42:13.402Z,12.82
2017-12-06T20:44:41.808Z,15.32
2017-12-06T20:47:16.290Z,16.73
2017-12-06T20:49:43.986Z,16.05
2017-12-06T20:52:12.229Z,17.77
2017-12-06T20:54:43.991Z,16.73
2017-12-06T20:57:12.336Z,19.27
2017-12-06T20:59:41.911Z,15.30
2017-12-06T21:02:09.878Z,24.30
2017-12-06T21:04:44.576Z,23.12
2017-12-06T21:07:13.260Z,18.37
2017-12-06T21:09:48.586Z,18.45
2017-12-06T21:12:28.017Z,16.08
2017-12-06T21:15:19.559Z,24.48
2017-12-06T21:17:49.677Z,17.40
2017-12-06T21:20:28.566Z,17.75
2017-12-06T21:23:00.174Z,17.30
2017-12-06T21:25:40.082Z,17.50
2017-12-06T21:28:10.366Z,14.35
2017-12-06T21:30:37.854Z,19.10
2017-12-06T21:33:07.533Z,16.08
2017-12-06T21:35:49.002Z,14.87
2017-12-06T21:38:19.718Z,14.93
2017-12-06T21:40:49.161Z,15.30
2017-12-06T21:43:17.963Z,15.55
2017-12-06T21:45:48.325Z,15.88
2017-12-06T21:48:26.320Z,15.18
2017-12-06T21:51:02.476Z,17.95
2017-12-06T21:53:32.027Z,16.37
2017-12-06T21:56:07.260Z,11.63
2017-12-06T22:02:03.154Z,16.65
2017-12-06T22:04:36.980Z,15.80
2017-12-06T22:07:13.820Z,15.80
2017-12-06T22:09:44.378Z,13.40
2017-12-06T22:12:14.784Z,15.13
2017-12-06T22:15:01.867Z,12.77
2017-12-06T22:17:47.902Z,13.48
2017-12-06T22:22:51.527Z,13.60
2017-12-06T22:25:20.827Z,15.30
2017-12-06T22:27:48.892Z,14.52
2017-12-06T22:30:18.833Z,16.48
2017-12-06T22:32:47.228Z,17.23
2017-12-06T22:35:15.762Z,16.30
2017-12-06T22:37:43.824Z,19.80
2017-12-06T22:40:13.762Z,17.37
2017-12-06T22:42:41.606Z,15.45
2017-12-06T22:45:21.216Z,18.87
2017-12-06T22:47:52.363Z,16.00
2017-12-06T22:50:20.125Z,17.85
2017-12-06T22:52:50.028Z,20.85
2017-12-06T22:55:19.418Z,20.23
2017-12-06T22:57:50.493Z,17.55
2017-12-06T23:00:20.735Z,16.70
2017-12-06T23:02:53.494Z,16.85
2017-12-06T23:05:26.501Z,15.90
2017-12-06T23:08:00.571Z,14.57
2017-12-06T23:10:39.434Z,15.02
2017-12-06T23:13:19.177Z,13.73
2017-12-06T23:15:51.888Z,15.45
2017-12-06T23:18:24.327Z,14.18
2017-12-06T23:20:55.879Z,11.40
2017-12-06T23:23:25.598Z,12.95
2017-12-06T23:25:58.482Z,13.15
2017-12-06T23:28:26.447Z,11.60
2017-12-06T23:30:58.204Z,9.13
2017-12-06T23:33:28.901Z,10.57
2017-12-06T23:35:58.709Z,8.70
2017-12-06T23:38:30.898Z,12.00
2017-12-06T23:41:01.350Z,11.05
2017-12-06T23:43:33.017Z,12.10
2017-12-06T23:46:05.571Z,8.82
2017-12-06T23:48:33.563Z,6.22
2017-12-06T23:51:04.168Z,9.20
2017-12-06T23:53:33.497Z,7.45
2017-12-06T23:56:06.147Z,11.27
2017-12-06T23:58:34.964Z,6.18
